Abrela — EAVW — position and weather

sailwx.info

Track history (hours):
 
Tides and Currents Weather Stations Pressure Air Temp Water Temp Dewpoint Dewpoint Depression Visibility Wind Speed Wind Dir Waves Ship Positions

Abrela

Last reported at 2016-Jan-30 15:31 UTC. Time now 2016-Feb-08 01:54 UTC.
Position N 43°33' W 005°42'.
Warning: this ship's position is 8 days out of date.

Length 30 m; draft 3 m.

Type: Fishing. MMSI: 224204490.

Date/timePositionNaut miles runAvg speedWind from/ knotsBaromVisibWave heightAir tempDewpointWater temp
2016-Jan-30 15:31N 43°33' W 005°42'0 0.0
2016-Jan-30 14:33N 43°33' W 005°42'0 0.0
2016-Jan-30 13:16N 43°33' W 005°42'0 0.0
2016-Jan-30 12:22N 43°33' W 005°42'0 0.0
2016-Jan-30 11:27N 43°33' W 005°42'0 0.0
2016-Jan-30 10:31N 43°33' W 005°42'0 0.0
2016-Jan-30 09:33N 43°33' W 005°42'0 0.0
2016-Jan-30 08:15N 43°33' W 005°42'0 0.0
2016-Jan-30 07:21N 43°33' W 005°42'0 0.0
2016-Jan-30 06:27N 43°33' W 005°42'0 0.0
2016-Jan-30 05:33N 43°33' W 005°42'0 0.0
2016-Jan-30 04:12N 43°33' W 005°42'0 0.0
2016-Jan-30 03:15N 43°33' W 005°42'0 0.0
2016-Jan-30 02:22N 43°33' W 005°42'0 0.0
2016-Jan-30 01:32N 43°33' W 005°42'0 0.0
2016-Jan-29 20:26N 43°33' W 005°42'0 0.0
2016-Jan-29 19:31N 43°33' W 005°42'0 0.0
2016-Jan-29 18:32N 43°33' W 005°42'0 0.0
2016-Jan-29 17:14N 43°33' W 005°42'0 0.0
2016-Jan-29 16:13N 43°33' W 005°42'0 0.0
2016-Jan-27 17:27N 43°33' W 005°42'2 2.6
2016-Jan-27 16:31N 43°35' W 005°39'3 3.5
2016-Jan-27 15:33N 43°38' W 005°37'3 0.2
2016-Jan-27 01:20N 43°41' W 005°37'8 9.6
2016-Jan-27 00:29N 43°33' W 005°42'0 0.0
2016-Jan-26 21:34N 43°33' W 005°42'1 0.7
2016-Jan-26 19:33N 43°34' W 005°40'1 1.4
2016-Jan-26 18:33N 43°35' W 005°39'7 5.6
2016-Jan-26 17:19N 43°42' W 005°36'  
Track history (hours):
 
Tides and Currents Weather Stations Pressure Air Temp Water Temp Dewpoint Dewpoint Depression Visibility Wind Speed Wind Dir Waves Ship Positions

Abrela

Last reported at 2016-Jan-30 15:31 UTC. Time now 2016-Feb-08 01:54 UTC.
Position N 43°33' W 005°42'.
Warning: this ship's position is 8 days out of date.

Length 30 m; draft 3 m.

Type: Fishing. MMSI: 224204490.

Date/timePositionNaut miles runAvg speedWind from/ knotsBaromVisibWave heightAir tempDewpointWater temp
2016-Jan-30 15:31N 43°33' W 005°42'0 0.0
2016-Jan-30 14:33N 43°33' W 005°42'0 0.0
2016-Jan-30 13:16N 43°33' W 005°42'0 0.0
2016-Jan-30 12:22N 43°33' W 005°42'0 0.0
2016-Jan-30 11:27N 43°33' W 005°42'0 0.0
2016-Jan-30 10:31N 43°33' W 005°42'0 0.0
2016-Jan-30 09:33N 43°33' W 005°42'0 0.0
2016-Jan-30 08:15N 43°33' W 005°42'0 0.0
2016-Jan-30 07:21N 43°33' W 005°42'0 0.0
2016-Jan-30 06:27N 43°33' W 005°42'0 0.0
2016-Jan-30 05:33N 43°33' W 005°42'0 0.0
2016-Jan-30 04:12N 43°33' W 005°42'0 0.0
2016-Jan-30 03:15N 43°33' W 005°42'0 0.0
2016-Jan-30 02:22N 43°33' W 005°42'0 0.0
2016-Jan-30 01:32N 43°33' W 005°42'0 0.0
2016-Jan-29 20:26N 43°33' W 005°42'0 0.0
2016-Jan-29 19:31N 43°33' W 005°42'0 0.0
2016-Jan-29 18:32N 43°33' W 005°42'0 0.0
2016-Jan-29 17:14N 43°33' W 005°42'0 0.0
2016-Jan-29 16:13N 43°33' W 005°42'0 0.0
2016-Jan-27 17:27N 43°33' W 005°42'2 2.6
2016-Jan-27 16:31N 43°35' W 005°39'3 3.5
2016-Jan-27 15:33N 43°38' W 005°37'3 0.2
2016-Jan-27 01:20N 43°41' W 005°37'8 9.6
2016-Jan-27 00:29N 43°33' W 005°42'0 0.0
2016-Jan-26 21:34N 43°33' W 005°42'1 0.7
2016-Jan-26 19:33N 43°34' W 005°40'1 1.4
2016-Jan-26 18:33N 43°35' W 005°39'7 5.6
2016-Jan-26 17:19N 43°42' W 005°36'  

Dump ship's entire track history